Time;durP1;ratioP1;P1;durP2;ratioP2;P2;SDS_P1;SDS_P2;PMS_P1;PMS_P2;Temp;Humidity;BMP_temperature;BMP_pressure;BME280_temperature;BME280_humidity;BME280_pressure;Samples;Min_cycle;Max_cycle;Signal;HPM_P1;HPM_P2
2023/06/14 00:01:47;;;;;;;7.37;4.00;;;;;;;24.50;44.23;99737.22;5054765;28;20183;-70
2023/06/14 00:04:12;;;;;;;6.50;3.77;;;;;;;24.50;44.30;99731.44;5055229;28;20536;-70
2023/06/14 00:06:38;;;;;;;5.37;3.90;;;;;;;24.49;44.29;99735.59;5053265;28;20421;-70
2023/06/14 00:09:04;;;;;;;8.80;3.90;;;;;;;24.48;44.56;99739.75;5067281;28;20178;-70
2023/06/14 00:11:32;;;;;;;6.90;4.17;;;;;;;24.49;44.09;99750.03;5071942;28;20633;-69
2023/06/14 00:13:58;;;;;;;4.57;3.87;;;;;;;24.49;44.49;99750.81;5045805;28;20592;-70
2023/06/14 00:16:24;;;;;;;9.03;4.50;;;;;;;24.49;44.43;99750.03;5060648;28;20451;-69
2023/06/14 00:18:51;;;;;;;7.53;4.47;;;;;;;24.48;44.90;99737.66;5058368;28;20186;-69
2023/06/14 00:21:17;;;;;;;7.90;3.90;;;;;;;24.48;44.97;99739.75;5055985;28;20428;-69
2023/06/14 00:23:42;;;;;;;5.10;4.00;;;;;;;24.48;45.31;99736.84;5072202;28;20416;-71
2023/06/14 00:26:08;;;;;;;6.17;3.90;;;;;;;24.47;44.26;99741.78;5065079;28;20424;-70
2023/06/14 00:28:33;;;;;;;5.33;3.70;;;;;;;24.47;44.66;99738.06;5067161;28;20182;-69
2023/06/14 00:30:59;;;;;;;6.83;4.27;;;;;;;24.46;44.50;99731.50;5055157;28;20166;-69
2023/06/14 00:33:25;;;;;;;6.10;4.30;;;;;;;24.45;44.29;99735.66;5071484;28;20177;-69
2023/06/14 00:35:53;;;;;;;4.63;3.60;;;;;;;24.44;44.61;99719.56;5073583;28;20985;-69
2023/06/14 00:38:19;;;;;;;6.20;3.57;;;;;;;24.46;45.15;99728.63;5051847;28;21219;-69
2023/06/14 00:40:45;;;;;;;4.93;3.53;;;;;;;24.46;45.39;99719.13;5044552;28;20493;-69
2023/06/14 00:43:10;;;;;;;7.87;3.97;;;;;;;24.46;44.80;99725.75;5071156;28;20525;-69
2023/06/14 00:45:36;;;;;;;6.77;4.00;;;;;;;24.45;45.01;99726.16;5055256;28;20171;-69
2023/06/14 00:48:02;;;;;;;6.50;4.63;;;;;;;24.45;44.88;99724.09;5070810;28;20170;-69
2023/06/14 00:50:28;;;;;;;9.00;4.30;;;;;;;24.45;45.08;99720.41;5065696;28;20182;-69
2023/06/14 00:52:53;;;;;;;6.27;4.20;;;;;;;24.45;45.33;99721.22;5073890;28;20439;-70
2023/06/14 00:55:19;;;;;;;6.63;4.03;;;;;;;24.45;44.92;99724.09;5088005;28;20585;-70
2023/06/14 00:57:45;;;;;;;5.87;4.00;;;;;;;24.44;45.06;99719.56;5052634;28;20178;-70
2023/06/14 01:00:38;;;;;;;5.77;3.80;;;;;;;24.44;45.14;99724.53;5071017;28;20527;-72
2023/06/14 01:03:04;;;;;;;9.93;3.80;;;;;;;24.44;45.41;99719.56;5071339;28;20481;-72
2023/06/14 01:05:30;;;;;;;8.07;3.93;;;;;;;24.44;45.25;99718.75;5071277;28;20424;-72
2023/06/14 01:08:23;;;;;;;9.53;4.30;;;;;;;24.43;45.23;99722.91;5069040;28;20182;-73
2023/06/14 01:11:05;;;;;;;5.90;4.10;;;;;;;24.44;45.09;99727.44;5086150;28;20170;-72
2023/06/14 01:13:43;;;;;;;5.40;4.00;;;;;;;24.42;45.13;99724.97;5071343;28;21267;-73
2023/06/14 01:16:08;;;;;;;6.47;3.90;;;;;;;24.43;45.61;99729.47;5054417;28;20459;-72
2023/06/14 01:18:34;;;;;;;5.20;3.70;;;;;;;24.44;45.94;99727.44;5057596;28;20435;-72
2023/06/14 01:21:05;;;;;;;7.23;3.97;;;;;;;24.43;45.81;99723.72;5081266;28;20170;-72
2023/06/14 01:23:32;;;;;;;6.17;4.20;;;;;;;24.43;45.74;99729.47;5071512;28;20188;-72
2023/06/14 01:25:58;;;;;;;6.73;4.40;;;;;;;24.42;45.52;99727.84;5074836;28;20416;-72
2023/06/14 01:28:23;;;;;;;5.37;3.90;;;;;;;24.42;44.98;99736.50;5071989;28;20443;-72
2023/06/14 01:30:51;;;;;;;5.20;3.77;;;;;;;24.40;45.76;99736.13;5055504;28;20572;-72
2023/06/14 01:33:24;;;;;;;4.90;3.83;;;;;;;24.41;45.53;99734.88;5074004;28;20328;-72
2023/06/14 01:35:50;;;;;;;5.00;3.70;;;;;;;24.40;45.35;99736.13;5072579;28;20510;-72
2023/06/14 01:38:17;;;;;;;6.80;4.07;;;;;;;24.40;45.34;99729.53;5055401;28;20436;-72
2023/06/14 01:40:43;;;;;;;4.70;4.00;;;;;;;24.39;45.38;99734.47;5057656;28;21310;-72
2023/06/14 01:43:08;;;;;;;4.17;3.43;;;;;;;24.40;45.35;99733.25;5074458;28;20449;-72
2023/06/14 01:45:34;;;;;;;5.90;3.90;;;;;;;24.39;45.87;99737.38;5041391;28;20641;-72
2023/06/14 01:48:00;;;;;;;4.70;3.63;;;;;;;24.39;45.88;99731.59;5044117;28;20190;-72
2023/06/14 01:50:31;;;;;;;5.77;4.00;;;;;;;24.38;45.86;99738.63;5058361;28;20644;-73
2023/06/14 01:52:56;;;;;;;5.80;3.70;;;;;;;24.38;45.65;99744.41;5075508;28;20170;-72
2023/06/14 01:55:22;;;;;;;5.90;4.10;;;;;;;24.39;45.99;99740.25;5060790;28;21024;-72
2023/06/14 01:57:47;;;;;;;5.80;4.40;;;;;;;24.39;45.76;99743.13;5058502;28;20159;-72
2023/06/14 02:00:14;;;;;;;8.90;4.13;;;;;;;24.38;45.81;99744.41;5077325;28;20187;-72
2023/06/14 02:02:40;;;;;;;4.73;3.97;;;;;;;24.38;46.08;99738.63;5058471;28;20214;-72
2023/06/14 02:05:06;;;;;;;9.30;4.50;;;;;;;24.37;46.04;99731.22;5075346;28;20451;-72
2023/06/14 02:07:31;;;;;;;5.40;4.07;;;;;;;24.38;45.74;99735.75;5044542;28;20468;-72
2023/06/14 02:09:57;;;;;;;5.73;3.93;;;;;;;24.37;45.74;99742.75;5058424;28;20166;-72
2023/06/14 02:12:22;;;;;;;4.90;3.70;;;;;;;24.35;45.80;99739.50;5072897;28;20214;-72
2023/06/14 02:14:48;;;;;;;5.20;3.90;;;;;;;24.36;45.68;99740.31;5058400;28;20508;-71
2023/06/14 02:17:14;;;;;;;4.90;4.10;;;;;;;24.35;45.85;99738.69;5057856;28;20185;-71
2023/06/14 02:19:40;;;;;;;5.90;4.00;;;;;;;24.34;45.62;99737.84;5057580;28;20635;-71
2023/06/14 02:22:05;;;;;;;5.13;3.80;;;;;;;24.34;45.92;99740.75;5057946;28;20432;-71
2023/06/14 02:24:31;;;;;;;5.20;4.37;;;;;;;24.34;45.59;99740.75;5059128;28;20608;-71
2023/06/14 02:26:56;;;;;;;4.87;3.83;;;;;;;24.33;45.92;99739.09;5056877;28;20323;-71
2023/06/14 02:29:22;;;;;;;6.23;3.93;;;;;;;24.33;46.20;99735.44;5055499;28;20577;-71
2023/06/14 02:31:48;;;;;;;5.47;3.40;;;;;;;24.33;45.95;99750.66;5073706;28;20501;-71
2023/06/14 02:34:16;;;;;;;5.17;4.03;;;;;;;24.32;45.92;99749.03;5090781;28;20198;-71
2023/06/14 02:36:42;;;;;;;5.67;3.83;;;;;;;24.34;46.01;99749.41;5057498;28;20451;-71
2023/06/14 02:39:09;;;;;;;5.60;3.50;;;;;;;24.33;46.08;99747.75;5071425;28;20438;-71
2023/06/14 02:41:35;;;;;;;4.17;3.57;;;;;;;24.33;45.79;99741.19;5073687;28;20165;-71
2023/06/14 02:44:00;;;;;;;5.37;3.70;;;;;;;24.32;45.77;99754.78;5055687;28;20406;-71
2023/06/14 02:46:25;;;;;;;5.10;3.80;;;;;;;24.31;45.83;99735.03;5042496;28;20274;-71
2023/06/14 02:48:51;;;;;;;4.57;3.60;;;;;;;24.31;45.89;99744.50;5056701;28;20635;-71
2023/06/14 02:51:16;;;;;;;5.70;4.00;;;;;;;24.30;45.62;99745.75;5058067;28;20594;-71
2023/06/14 02:53:42;;;;;;;5.20;4.10;;;;;;;24.30;45.76;99742.88;5074607;28;20582;-71
2023/06/14 02:56:07;;;;;;;6.40;4.20;;;;;;;24.30;45.74;99742.06;5073831;28;20181;-71
2023/06/14 02:58:33;;;;;;;5.30;3.77;;;;;;;24.29;45.94;99747.00;5070983;28;20189;-71
2023/06/14 03:01:03;;;;;;;4.97;3.83;;;;;;;24.28;45.89;99756.91;5057349;28;20170;-71
2023/06/14 03:03:29;;;;;;;6.23;4.27;;;;;;;24.28;45.81;99745.38;5056462;28;20236;-71
2023/06/14 03:05:54;;;;;;;5.03;3.70;;;;;;;24.29;45.63;99757.72;5074258;28;20425;-71
2023/06/14 03:08:20;;;;;;;5.00;3.87;;;;;;;24.27;45.96;99752.38;5072611;28;20182;-71
2023/06/14 03:10:46;;;;;;;6.00;4.07;;;;;;;24.27;45.73;99758.16;5086948;28;20174;-72
2023/06/14 03:13:11;;;;;;;4.77;3.60;;;;;;;24.28;46.13;99756.09;5074202;28;20280;-72
2023/06/14 03:15:38;;;;;;;4.83;3.43;;;;;;;24.27;46.01;99755.28;5042414;28;20576;-71
2023/06/14 03:18:04;;;;;;;7.13;4.10;;;;;;;24.27;45.89;99763.09;5051050;28;20175;-71
2023/06/14 03:20:29;;;;;;;7.30;4.03;;;;;;;24.27;46.03;99769.69;5037052;28;20412;-71
2023/06/14 03:22:55;;;;;;;4.87;4.00;;;;;;;24.26;46.10;99768.06;5051998;28;20183;-71
2023/06/14 03:25:21;;;;;;;6.60;3.93;;;;;;;24.25;45.97;99757.78;5061524;28;20658;-72
2023/06/14 03:27:47;;;;;;;6.17;3.57;;;;;;;24.25;45.93;99760.69;5088571;28;20178;-72
2023/06/14 03:30:13;;;;;;;5.40;3.77;;;;;;;24.25;46.17;99772.22;5069596;28;20438;-71
2023/06/14 03:32:38;;;;;;;5.33;3.87;;;;;;;24.24;46.30;99770.56;5071304;28;20235;-71
2023/06/14 03:35:04;;;;;;;4.90;3.80;;;;;;;24.25;45.92;99768.50;5054935;28;20209;-71
2023/06/14 03:37:30;;;;;;;5.10;3.67;;;;;;;24.24;46.07;99778.41;5086632;28;20266;-71
2023/06/14 03:39:55;;;;;;;5.90;4.23;;;;;;;24.25;45.92;99777.97;5073727;28;20432;-71
2023/06/14 03:42:21;;;;;;;4.50;3.43;;;;;;;24.24;46.04;99775.53;5052549;28;20159;-71
2023/06/14 03:44:46;;;;;;;5.20;3.97;;;;;;;24.24;46.15;99790.75;5046868;28;20530;-71
2023/06/14 03:47:12;;;;;;;5.70;4.10;;;;;;;24.23;45.86;99794.09;5056006;28;20190;-71
2023/06/14 03:49:37;;;;;;;8.50;4.10;;;;;;;24.22;45.99;99787.50;5090424;28;20174;-71
2023/06/14 03:52:03;;;;;;;5.37;3.70;;;;;;;24.22;46.00;99795.31;5056877;28;20185;-71
2023/06/14 03:54:29;;;;;;;5.80;4.00;;;;;;;24.21;45.93;99791.63;5068956;28;20213;-71
2023/06/14 03:56:56;;;;;;;5.73;4.00;;;;;;;24.22;46.27;99795.31;5055830;28;21101;-71
2023/06/14 03:59:22;;;;;;;5.43;4.17;;;;;;;24.21;46.03;99803.19;5039414;28;20269;-71
2023/06/14 04:01:48;;;;;;;5.67;3.70;;;;;;;24.21;46.08;99806.06;5080415;28;20835;-71
2023/06/14 04:04:16;;;;;;;5.00;3.80;;;;;;;24.20;46.31;99804.44;5039626;28;20443;-71
2023/06/14 04:06:42;;;;;;;5.10;3.87;;;;;;;24.20;45.91;99807.31;5062986;28;20447;-71
2023/06/14 04:09:08;;;;;;;8.27;4.20;;;;;;;24.20;46.05;99810.19;5072951;28;20734;-71
2023/06/14 04:11:33;;;;;;;5.40;3.97;;;;;;;24.19;46.32;99805.66;5055452;28;20807;-71
2023/06/14 04:13:59;;;;;;;5.93;4.07;;;;;;;24.18;46.06;99812.69;5056606;28;20697;-71
2023/06/14 04:16:24;;;;;;;5.93;4.80;;;;;;;24.18;45.90;99814.75;5056062;28;20897;-71
2023/06/14 04:18:52;;;;;;;5.63;3.80;;;;;;;24.18;46.06;99812.69;5077381;28;20232;-71
2023/06/14 04:21:17;;;;;;;5.53;3.50;;;;;;;24.18;46.02;99821.34;5068999;28;20185;-73
2023/06/14 04:23:43;;;;;;;7.20;4.20;;;;;;;24.18;45.62;99827.09;5089423;28;20896;-71
2023/06/14 04:26:10;;;;;;;5.20;3.97;;;;;;;24.17;46.16;99825.47;5072241;28;20162;-71
2023/06/14 04:28:40;;;;;;;5.83;3.90;;;;;;;24.19;46.22;99839.47;5065288;28;20482;-71
2023/06/14 04:31:08;;;;;;;6.20;3.83;;;;;;;24.17;46.17;99824.66;5071642;28;20450;-71
2023/06/14 04:33:42;;;;;;;6.37;3.73;;;;;;;24.17;46.32;99830.41;5040102;28;20432;-71
2023/06/14 04:36:17;;;;;;;5.80;4.30;;;;;;;24.17;46.44;99834.13;5070977;28;20761;-71
2023/06/14 04:38:44;;;;;;;6.50;4.30;;;;;;;24.18;46.07;99841.53;5059405;28;20802;-71
2023/06/14 04:41:11;;;;;;;5.90;3.73;;;;;;;24.20;45.95;99841.94;5072350;28;20505;-71
2023/06/14 04:43:37;;;;;;;6.17;3.80;;;;;;;24.21;46.05;99834.06;5057723;28;20432;-71
2023/06/14 04:46:10;;;;;;;7.67;4.60;;;;;;;24.23;46.01;99843.13;5052843;28;21284;-71
2023/06/14 04:48:40;;;;;;;7.23;3.87;;;;;;;24.24;46.20;99847.66;5071701;28;20416;-71
2023/06/14 04:51:06;;;;;;;8.03;4.63;;;;;;;24.24;46.26;99848.44;5064712;28;20428;-71
2023/06/14 04:53:32;;;;;;;7.07;4.40;;;;;;;24.23;46.69;99838.16;5057280;28;20814;-71
2023/06/14 04:55:57;;;;;;;5.40;4.00;;;;;;;24.22;47.06;99850.13;5077086;28;20459;-71
2023/06/14 04:58:22;;;;;;;6.47;3.90;;;;;;;24.23;47.56;99851.78;5075554;28;20614;-71
2023/06/14 05:00:48;;;;;;;6.30;4.40;;;;;;;24.23;47.27;99858.38;5090464;28;20542;-71
2023/06/14 05:03:13;;;;;;;5.30;3.90;;;;;;;24.24;46.67;99860.00;5075585;28;20772;-71
2023/06/14 05:05:42;;;;;;;7.10;4.33;;;;;;;24.24;46.97;99856.31;5075518;28;20226;-71
2023/06/14 05:08:09;;;;;;;5.30;3.90;;;;;;;24.25;47.51;99855.88;5086001;28;20199;-71
2023/06/14 05:10:35;;;;;;;5.33;4.13;;;;;;;24.27;47.22;99850.50;5041901;28;20465;-71
2023/06/14 05:13:01;;;;;;;5.87;3.60;;;;;;;24.27;46.89;99858.31;5036946;28;20479;-71
2023/06/14 05:15:27;;;;;;;5.97;4.23;;;;;;;24.27;47.11;99856.25;5025755;28;20472;-71
2023/06/14 05:17:55;;;;;;;6.50;4.27;;;;;;;24.28;47.17;99857.88;5075838;28;20189;-71
2023/06/14 05:20:22;;;;;;;5.90;4.00;;;;;;;24.29;47.05;99850.88;5073471;28;20159;-71
2023/06/14 05:22:49;;;;;;;6.60;4.10;;;;;;;24.30;47.41;99858.28;5092099;28;20436;-71
2023/06/14 05:25:15;;;;;;;6.23;4.10;;;;;;;24.31;46.47;99854.16;5058966;28;20404;-71
2023/06/14 05:27:41;;;;;;;6.27;4.40;;;;;;;24.33;46.88;99863.19;5058020;28;20434;-71
2023/06/14 05:30:08;;;;;;;7.63;4.30;;;;;;;24.33;46.64;99868.97;5043119;28;20763;-71
2023/06/14 05:32:33;;;;;;;6.73;3.90;;;;;;;24.32;46.01;99866.50;5054331;28;20419;-71
2023/06/14 05:34:59;;;;;;;4.13;3.33;;;;;;;24.30;46.65;99864.06;5038335;28;20449;-71
2023/06/14 05:37:25;;;;;;;8.17;4.10;;;;;;;24.28;46.30;99863.66;5049502;28;20265;-71
2023/06/14 05:39:50;;;;;;;5.73;4.13;;;;;;;24.27;46.18;99864.91;5083123;28;20186;-73
2023/06/14 05:42:16;;;;;;;6.30;4.23;;;;;;;24.27;46.39;99870.69;5060381;28;20174;-71
2023/06/14 05:44:41;;;;;;;4.83;3.50;;;;;;;24.27;47.45;99882.22;5058873;28;20183;-71
2023/06/14 05:47:06;;;;;;;5.40;3.63;;;;;;;24.28;46.84;99877.28;5080361;28;20190;-71
2023/06/14 05:49:32;;;;;;;5.33;4.10;;;;;;;24.28;46.29;99880.97;5058688;28;20174;-71
2023/06/14 05:51:57;;;;;;;6.20;4.57;;;;;;;24.29;46.11;99884.69;5075706;28;20155;-71
2023/06/14 05:54:23;;;;;;;5.77;4.03;;;;;;;24.28;46.87;99880.97;5074726;28;20201;-71
2023/06/14 05:56:48;;;;;;;6.47;4.10;;;;;;;24.27;46.29;99885.13;5088396;28;20183;-71
2023/06/14 05:59:13;;;;;;;8.27;4.50;;;;;;;24.25;46.52;99884.75;5089549;28;20177;-71
2023/06/14 06:01:40;;;;;;;5.90;3.70;;;;;;;24.27;46.34;99888.00;5088467;28;20198;-71
2023/06/14 06:04:06;;;;;;;5.57;4.20;;;;;;;24.31;46.63;99887.94;5029065;28;20175;-70
2023/06/14 06:06:32;;;;;;;7.10;5.00;;;;;;;24.33;46.33;99892.03;5066374;28;20954;-70
2023/06/14 06:08:57;;;;;;;6.83;4.20;;;;;;;24.36;46.35;99884.59;5092471;28;20174;-70
2023/06/14 06:11:23;;;;;;;6.10;4.53;;;;;;;24.37;47.04;99883.34;5057068;28;20439;-70
2023/06/14 06:13:48;;;;;;;5.77;4.13;;;;;;;24.37;46.59;99887.06;5057287;28;20186;-70
2023/06/14 06:16:14;;;;;;;4.83;3.97;;;;;;;24.36;46.93;99896.97;5066583;28;20210;-70
2023/06/14 06:18:40;;;;;;;11.47;4.90;;;;;;;24.35;46.96;99889.56;5073128;28;20683;-70
2023/06/14 06:21:05;;;;;;;7.10;4.00;;;;;;;24.35;46.42;99895.34;5089714;28;20412;-70
2023/06/14 06:23:31;;;;;;;6.80;4.20;;;;;;;24.33;46.02;99894.13;5072999;28;20183;-70
2023/06/14 06:25:56;;;;;;;8.97;4.57;;;;;;;24.30;46.46;99897.84;5077757;28;20232;-70
2023/06/14 06:28:22;;;;;;;6.57;4.40;;;;;;;24.28;46.82;99897.47;5043592;28;20224;-71
2023/06/14 06:30:47;;;;;;;5.57;4.03;;;;;;;24.26;46.67;99900.78;5072436;28;20186;-70
2023/06/14 06:33:13;;;;;;;8.63;4.23;;;;;;;24.26;46.71;99897.06;5057221;28;20185;-70
2023/06/14 06:35:39;;;;;;;8.00;4.10;;;;;;;24.25;47.11;99895.44;5073898;28;20206;-70
2023/06/14 06:38:05;;;;;;;5.50;3.80;;;;;;;24.24;47.29;99896.69;5085128;28;20427;-70
2023/06/14 06:40:30;;;;;;;8.50;5.10;;;;;;;24.22;47.24;99902.88;5086336;28;20190;-70
2023/06/14 06:42:55;;;;;;;5.30;4.23;;;;;;;24.22;47.26;99908.66;5083721;28;20273;-71
2023/06/14 06:45:23;;;;;;;5.50;4.20;;;;;;;24.23;47.54;99909.50;5095182;28;20259;-70
2023/06/14 06:47:48;;;;;;;5.43;4.20;;;;;;;24.21;47.16;99915.69;5055203;28;20653;-70
2023/06/14 06:50:13;;;;;;;6.63;4.20;;;;;;;24.20;47.00;99913.22;5058486;28;20424;-70
2023/06/14 06:52:39;;;;;;;5.17;3.80;;;;;;;24.20;47.17;99916.94;5056655;28;20170;-70
2023/06/14 06:55:04;;;;;;;7.47;4.53;;;;;;;24.23;47.08;99918.94;5053796;28;20262;-70
2023/06/14 06:57:30;;;;;;;7.50;4.77;;;;;;;24.23;46.99;99916.06;5046981;28;20540;-70
2023/06/14 06:59:56;;;;;;;5.37;3.90;;;;;;;24.23;47.00;99921.03;5056381;28;20154;-70
2023/06/14 07:02:22;;;;;;;6.40;4.30;;;;;;;24.24;46.41;99925.56;5058893;28;20202;-70
2023/06/14 07:04:47;;;;;;;6.20;4.13;;;;;;;24.24;46.54;99922.66;5073271;28;20474;-70
2023/06/14 07:07:13;;;;;;;5.80;4.40;;;;;;;24.24;46.61;99934.22;5062517;28;20178;-70
2023/06/14 07:09:38;;;;;;;6.80;4.57;;;;;;;24.24;46.52;99926.34;5040247;28;20181;-70
2023/06/14 07:12:04;;;;;;;11.43;5.57;;;;;;;24.23;46.03;99927.59;5058885;28;20358;-69
2023/06/14 07:14:30;;;;;;;5.97;4.10;;;;;;;24.23;46.36;99938.34;5055748;28;21047;-69
2023/06/14 07:16:55;;;;;;;9.73;4.13;;;;;;;24.21;46.67;99935.88;5056866;28;20440;-70
2023/06/14 07:19:21;;;;;;;8.97;4.90;;;;;;;24.20;46.39;99934.25;5036075;28;20175;-70
2023/06/14 07:21:46;;;;;;;7.40;4.80;;;;;;;24.21;46.26;99946.59;5066118;28;20182;-70
2023/06/14 07:24:12;;;;;;;5.37;4.07;;;;;;;24.20;46.48;99936.31;5055865;28;20175;-70
2023/06/14 07:26:37;;;;;;;7.17;4.60;;;;;;;24.19;46.51;99941.25;5053756;28;20186;-70
2023/06/14 07:29:03;;;;;;;5.90;4.73;;;;;;;24.17;46.47;99935.09;5059722;28;20194;-70
2023/06/14 07:31:28;;;;;;;5.13;4.53;;;;;;;24.19;46.48;99934.66;5069085;28;20179;-70
2023/06/14 07:33:53;;;;;;;6.13;4.03;;;;;;;24.17;46.50;99937.16;5082810;28;20549;-70
2023/06/14 07:36:19;;;;;;;7.17;5.10;;;;;;;24.17;46.51;99937.16;5072367;28;20992;-70
2023/06/14 07:38:45;;;;;;;7.83;4.33;;;;;;;24.17;46.31;99935.09;5055953;28;20170;-70
2023/06/14 07:41:11;;;;;;;6.30;4.67;;;;;;;24.18;46.73;99941.69;5082451;28;20195;-75
2023/06/14 07:43:36;;;;;;;7.10;4.60;;;;;;;24.18;46.48;99933.03;5034363;28;20758;-73
2023/06/14 07:46:02;;;;;;;7.50;4.30;;;;;;;24.16;46.60;99933.47;5090104;28;20618;-73
2023/06/14 07:48:27;;;;;;;6.60;4.33;;;;;;;24.15;46.11;99936.78;5054279;28;20586;-73
2023/06/14 07:50:53;;;;;;;6.53;4.47;;;;;;;24.15;46.27;99931.00;5054679;28;20177;-77
2023/06/14 07:53:18;;;;;;;8.03;4.30;;;;;;;24.14;46.33;99938.81;5089335;28;20258;-75
2023/06/14 07:55:44;;;;;;;9.20;4.30;;;;;;;24.15;45.96;99943.38;5057315;28;20210;-75
2023/06/14 07:58:10;;;;;;;5.90;4.30;;;;;;;24.16;46.60;99939.22;5074021;28;20226;-75
2023/06/14 08:00:35;;;;;;;6.97;4.27;;;;;;;24.15;46.44;99931.00;5070394;28;20193;-74
2023/06/14 08:03:01;;;;;;;7.57;4.43;;;;;;;24.15;46.53;99936.78;5039885;28;20432;-76
2023/06/14 08:05:27;;;;;;;11.00;5.27;;;;;;;24.14;46.92;99935.94;5058724;28;20177;-73
2023/06/14 08:07:53;;;;;;;12.23;5.30;;;;;;;24.13;45.72;99945.84;5067893;28;20652;-69
2023/06/14 08:10:18;;;;;;;30.27;5.60;;;;;;;24.09;45.54;99944.25;5054622;28;20432;-72
2023/06/14 08:12:44;;;;;;;10.10;5.50;;;;;;;24.07;45.80;99946.72;5053120;28;20223;-72
2023/06/14 08:15:09;;;;;;;12.27;5.50;;;;;;;24.05;45.24;99940.59;5066070;28;20209;-73
2023/06/14 08:17:35;;;;;;;8.93;4.53;;;;;;;24.00;44.81;99947.66;5045092;28;20174;-72
2023/06/14 08:20:00;;;;;;;16.60;5.83;;;;;;;24.01;45.06;99949.28;5058707;28;20210;-72
2023/06/14 08:22:27;;;;;;;10.20;5.33;;;;;;;24.00;44.81;99946.81;5039720;28;20194;-71
2023/06/14 08:24:54;;;;;;;18.13;5.67;;;;;;;24.03;45.20;99954.63;5039445;28;20601;-73
2023/06/14 08:27:19;;;;;;;16.37;6.20;;;;;;;24.03;45.13;99949.66;5053058;28;20987;-76
2023/06/14 08:29:45;;;;;;;9.63;4.97;;;;;;;24.01;44.86;99955.03;5068676;28;20436;-72
2023/06/14 08:32:11;;;;;;;19.77;5.30;;;;;;;24.01;44.64;99949.28;5076833;28;20728;-71
2023/06/14 08:34:36;;;;;;;16.87;5.70;;;;;;;24.03;44.86;99945.97;5050547;28;20206;-73
2023/06/14 08:37:02;;;;;;;14.20;6.20;;;;;;;24.06;46.22;99948.81;5050555;28;20186;-74
2023/06/14 08:39:27;;;;;;;23.20;5.50;;;;;;;24.07;45.75;99952.50;5062170;28;20178;-73
2023/06/14 08:41:52;;;;;;;11.97;6.00;;;;;;;24.09;46.03;99952.91;5082729;28;20339;-74
2023/06/14 08:44:18;;;;;;;14.73;6.70;;;;;;;24.09;45.71;99950.03;5058135;28;20178;-74
2023/06/14 08:46:43;;;;;;;12.50;5.57;;;;;;;24.09;46.13;99950.81;5050980;28;20253;-75
2023/06/14 08:49:12;;;;;;;17.43;6.33;;;;;;;24.09;45.85;99959.47;5075451;28;20185;-74
2023/06/14 08:51:37;;;;;;;17.50;5.27;;;;;;;24.09;46.00;99950.81;5050354;28;20191;-74
2023/06/14 08:54:03;;;;;;;19.03;6.03;;;;;;;24.10;45.92;99960.31;5067005;28;20411;-74
2023/06/14 08:56:29;;;;;;;20.90;6.00;;;;;;;24.09;46.14;99952.91;5055873;28;20174;-73
2023/06/14 08:58:56;;;;;;;16.83;5.90;;;;;;;24.09;46.30;99953.72;5082648;28;20846;-74
2023/06/14 09:01:23;;;;;;;12.53;6.50;;;;;;;24.10;46.06;99952.50;5064323;28;20644;-74
2023/06/14 09:03:48;;;;;;;9.90;5.00;;;;;;;24.10;45.99;99952.50;5073801;28;20796;-75
2023/06/14 09:06:15;;;;;;;13.23;5.60;;;;;;;24.12;46.15;99957.81;5055983;28;20445;-75
2023/06/14 09:08:44;;;;;;;12.87;5.30;;;;;;;24.13;45.99;99963.16;5051195;28;20175;-74
2023/06/14 09:11:13;;;;;;;11.43;5.63;;;;;;;24.12;46.07;99964.41;5065194;28;20744;-74
2023/06/14 09:13:41;;;;;;;15.73;5.70;;;;;;;24.14;46.09;99966.88;5049923;28;20475;-74
2023/06/14 09:16:07;;;;;;;10.50;4.70;;;;;;;24.14;45.76;99953.25;5056084;28;20505;-75
2023/06/14 09:18:47;;;;;;;11.20;5.40;;;;;;;24.14;46.18;99961.09;5032213;28;20433;-74
2023/06/14 09:21:13;;;;;;;9.07;5.33;;;;;;;24.13;45.89;99963.16;5068662;28;20233;-75
2023/06/14 09:23:42;;;;;;;8.90;5.23;;;;;;;24.15;45.84;99965.63;5055585;28;20447;-73
2023/06/14 09:26:15;;;;;;;13.63;5.93;;;;;;;24.15;46.22;99966.44;5041726;28;20202;-74
2023/06/14 09:28:47;;;;;;;9.37;5.23;;;;;;;24.17;45.70;99966.00;5049611;28;20908;-74
2023/06/14 09:31:14;;;;;;;8.00;5.07;;;;;;;24.16;45.56;99965.19;5055025;28;20967;-74
2023/06/14 09:33:50;;;;;;;8.10;5.60;;;;;;;24.16;45.64;99968.09;5031219;28;20425;-74
2023/06/14 09:36:17;;;;;;;8.63;4.90;;;;;;;24.16;45.64;99956.53;5059260;28;20466;-75
2023/06/14 09:38:43;;;;;;;8.40;4.67;;;;;;;24.16;45.44;99970.97;5063236;28;20442;-74
2023/06/14 09:41:09;;;;;;;8.63;5.23;;;;;;;24.17;45.18;99987.03;5073900;28;20458;-73
2023/06/14 09:43:34;;;;;;;7.93;4.70;;;;;;;24.18;45.19;99988.66;5076274;28;20890;-74
2023/06/14 09:46:03;;;;;;;7.93;4.63;;;;;;;24.18;45.48;99994.44;5050562;28;20182;-74
2023/06/14 09:48:29;;;;;;;9.67;5.27;;;;;;;24.19;45.57;99992.38;5024493;28;20240;-74
2023/06/14 09:50:55;;;;;;;9.03;5.07;;;;;;;24.17;45.26;99987.03;5065788;28;20674;-75
2023/06/14 09:53:22;;;;;;;9.50;4.70;;;;;;;24.17;45.33;99984.13;5075253;28;20174;-74
2023/06/14 09:55:47;;;;;;;13.30;5.40;;;;;;;24.18;45.11;99982.88;5063163;28;20280;-75
2023/06/14 09:58:13;;;;;;;9.37;4.73;;;;;;;24.19;45.36;99977.94;5064290;28;20557;-74
2023/06/14 10:00:39;;;;;;;9.90;4.57;;;;;;;24.18;45.20;99980.00;5094654;28;20181;-74
2023/06/14 10:03:28;;;;;;;11.57;4.90;;;;;;;24.20;45.38;99976.69;5062686;28;20572;-74
2023/06/14 10:05:53;;;;;;;8.90;4.97;;;;;;;24.19;45.41;99981.63;5091964;28;20269;-74
2023/06/14 10:08:19;;;;;;;6.83;5.07;;;;;;;24.21;44.91;99982.03;5062345;28;20786;-74
2023/06/14 10:10:45;;;;;;;10.40;5.10;;;;;;;24.19;45.31;99972.97;5068755;28;20633;-75
2023/06/14 10:13:11;;;;;;;10.53;4.97;;;;;;;24.21;44.88;99964.72;5046475;28;20482;-75
2023/06/14 10:15:58;;;;;;;8.27;4.63;;;;;;;24.21;45.24;99967.63;5063482;28;20206;-75
2023/06/14 10:18:24;;;;;;;8.47;4.50;;;;;;;24.20;44.91;99968.88;5105938;28;20430;-75
2023/06/14 10:21:24;;;;;;;6.43;4.70;;;;;;;24.21;44.89;99964.72;5100557;28;20476;-74
2023/06/14 10:23:50;;;;;;;9.53;4.47;;;;;;;24.21;45.06;99964.72;5093005;28;20412;-75
2023/06/14 10:26:21;;;;;;;8.33;4.50;;;;;;;24.21;45.31;99979.16;5045255;28;20444;-75
2023/06/14 10:29:09;;;;;;;11.47;4.63;;;;;;;24.22;45.03;99971.31;5075067;28;20189;-75
2023/06/14 10:31:48;;;;;;;10.80;4.70;;;;;;;24.22;44.97;99972.13;5079388;28;20443;-75
2023/06/14 10:34:29;;;;;;;10.40;4.33;;;;;;;24.21;45.21;99964.72;5068355;28;20416;-74
2023/06/14 10:37:05;;;;;;;6.47;4.40;;;;;;;24.23;45.15;99967.19;5066307;28;20531;-74
2023/06/14 10:39:30;;;;;;;10.63;5.03;;;;;;;24.21;44.98;99963.91;5083182;28;20509;-74
2023/06/14 10:41:56;;;;;;;12.83;4.27;;;;;;;24.23;45.21;99975.84;5078645;28;20442;-73
2023/06/14 10:44:22;;;;;;;8.47;4.40;;;;;;;24.23;45.10;99970.88;5041055;28;20273;-73
2023/06/14 10:46:48;;;;;;;7.13;4.57;;;;;;;24.25;44.71;99976.22;5058204;28;21001;-74
2023/06/14 10:49:18;;;;;;;5.97;3.80;;;;;;;24.24;44.92;99960.97;5067362;28;20183;-75
2023/06/14 10:51:47;;;;;;;7.70;4.30;;;;;;;24.24;44.86;99960.16;5042922;28;20420;-74
2023/06/14 10:54:13;;;;;;;7.60;3.60;;;;;;;24.25;44.97;99961.81;5075512;28;20466;-75
2023/06/14 10:56:43;;;;;;;6.80;4.50;;;;;;;24.25;44.59;99958.91;5063197;28;20463;-73
2023/06/14 10:59:08;;;;;;;9.20;4.33;;;;;;;24.25;44.79;99956.88;5060778;28;20657;-74
2023/06/14 11:01:41;;;;;;;7.63;4.80;;;;;;;24.27;44.37;99959.28;5080884;28;20436;-74
2023/06/14 11:04:10;;;;;;;12.00;4.90;;;;;;;24.26;44.16;99955.63;5060965;28;20735;-74
2023/06/14 11:06:49;;;;;;;7.50;4.60;;;;;;;24.26;44.14;99964.28;5064726;28;20421;-74
2023/06/14 11:09:30;;;;;;;7.87;3.90;;;;;;;24.26;43.91;99958.50;5060761;28;20430;-74
2023/06/14 11:11:55;;;;;;;6.77;4.30;;;;;;;24.26;44.14;99955.63;5042957;28;20466;-75
2023/06/14 11:14:21;;;;;;;6.33;4.00;;;;;;;24.26;44.30;99967.16;5027503;28;20524;-75
2023/06/14 11:16:50;;;;;;;7.00;4.13;;;;;;;24.27;44.12;99965.91;5023320;28;20194;-75
2023/06/14 11:19:17;;;;;;;5.97;3.90;;;;;;;24.27;43.94;99960.13;5029598;28;20321;-75
2023/06/14 11:21:42;;;;;;;10.17;4.30;;;;;;;24.26;43.96;99952.72;5021856;28;20467;-75
2023/06/14 11:24:11;;;;;;;9.27;4.50;;;;;;;24.26;43.99;99952.72;5016122;28;20427;-75
2023/06/14 11:26:38;;;;;;;6.10;3.53;;;;;;;24.26;43.78;99955.63;5020527;28;20311;-73
2023/06/14 11:29:03;;;;;;;7.50;4.43;;;;;;;24.27;44.07;99959.28;5038007;28;20453;-75
2023/06/14 11:31:29;;;;;;;10.00;4.13;;;;;;;24.27;43.93;99950.63;5018465;28;20433;-75